sensor_id;sensor_type;location;lat;lon;timestamp;pressure;altitude;pressure_sealevel;temperature;humidity
52855;BME280;38719;51.418;7.286;2022-10-30T00:00:42;99957.41;;;20.23;48.63
52855;BME280;38719;51.418;7.286;2022-10-30T00:03:10;99959.16;;;20.13;48.89
52855;BME280;38719;51.418;7.286;2022-10-30T00:05:40;99959.16;;;20.13;49.13
52855;BME280;38719;51.418;7.286;2022-10-30T00:08:09;99964.69;;;20.11;49.20
52855;BME280;38719;51.418;7.286;2022-10-30T00:10:36;99972.06;;;20.09;49.22
52855;BME280;38719;51.418;7.286;2022-10-30T00:13:04;99971.22;;;20.09;49.39
52855;BME280;38719;51.418;7.286;2022-10-30T00:15:32;99964.94;;;20.08;49.23
52855;BME280;38719;51.418;7.286;2022-10-30T00:18:02;99967.94;;;20.05;49.13
52855;BME280;38719;51.418;7.286;2022-10-30T00:20:29;99967.47;;;20.00;49.50
52855;BME280;38719;51.418;7.286;2022-10-30T00:22:57;99968.50;;;19.88;49.81
52855;BME280;38719;51.418;7.286;2022-10-30T00:25:25;99966.25;;;19.93;49.56
52855;BME280;38719;51.418;7.286;2022-10-30T00:27:53;99974.31;;;20.04;49.28
52855;BME280;38719;51.418;7.286;2022-10-30T00:30:20;99974.75;;;19.88;49.76
52855;BME280;38719;51.418;7.286;2022-10-30T00:32:48;99976.97;;;19.83;49.87
52855;BME280;38719;51.418;7.286;2022-10-30T00:35:17;99971.81;;;19.91;49.70
52855;BME280;38719;51.418;7.286;2022-10-30T00:37:44;99971.34;;;19.86;49.84
52855;BME280;38719;51.418;7.286;2022-10-30T00:40:13;99968.38;;;19.78;49.96
52855;BME280;38719;51.418;7.286;2022-10-30T00:42:42;99970.59;;;19.73;49.98
52855;BME280;38719;51.418;7.286;2022-10-30T00:45:15;99972.56;;;19.71;50.04
52855;BME280;38719;51.418;7.286;2022-10-30T00:47:44;99968.63;;;19.75;50.25
52855;BME280;38719;51.418;7.286;2022-10-30T00:50:18;99970.09;;;19.68;50.23
52855;BME280;38719;51.418;7.286;2022-10-30T00:52:49;99964.22;;;19.85;49.76
52855;BME280;38719;51.418;7.286;2022-10-30T00:55:21;99962.69;;;19.81;49.70
52855;BME280;38719;51.418;7.286;2022-10-30T00:57:51;99964.22;;;19.85;50.01
52855;BME280;38719;51.418;7.286;2022-10-30T01:00:21;99966.22;;;20.04;49.92
52855;BME280;38719;51.418;7.286;2022-10-30T01:02:50;99971.22;;;20.09;49.76
52855;BME280;38719;51.418;7.286;2022-10-30T01:05:22;99962.00;;;20.11;49.74
52855;BME280;38719;51.418;7.286;2022-10-30T01:07:51;99973.88;;;20.20;50.58
52855;BME280;38719;51.418;7.286;2022-10-30T01:10:19;99960.34;;;20.20;49.90
52855;BME280;38719;51.418;7.286;2022-10-30T01:12:48;99950.28;;;20.22;49.87
52855;BME280;38719;51.418;7.286;2022-10-30T01:15:17;99946.38;;;20.15;50.36
52855;BME280;38719;51.418;7.286;2022-10-30T01:18:08;99949.84;;;20.06;51.28
52855;BME280;38719;51.418;7.286;2022-10-30T01:20:57;99970.56;;;19.95;51.43
52855;BME280;38719;51.418;7.286;2022-10-30T01:23:36;99958.53;;;19.88;51.21
52855;BME280;38719;51.418;7.286;2022-10-30T01:26:11;99960.25;;;19.89;50.47
52855;BME280;38719;51.418;7.286;2022-10-30T01:28:50;99975.22;;;19.82;50.65
52855;BME280;38719;51.418;7.286;2022-10-30T01:31:32;99969.47;;;19.87;51.20
52855;BME280;38719;51.418;7.286;2022-10-30T01:34:12;99964.53;;;19.92;50.71
52855;BME280;38719;51.418;7.286;2022-10-30T01:36:46;99964.53;;;19.92;51.29
52855;BME280;38719;51.418;7.286;2022-10-30T01:39:19;99962.56;;;19.94;50.76
52855;BME280;38719;51.418;7.286;2022-10-30T01:41:47;99964.53;;;19.92;51.23
52855;BME280;38719;51.418;7.286;2022-10-30T01:44:17;99958.81;;;19.85;51.36
52855;BME280;38719;51.418;7.286;2022-10-30T01:46:56;99959.28;;;19.79;50.53
52855;BME280;38719;51.418;7.286;2022-10-30T01:49:44;99963.69;;;19.80;50.31
52855;BME280;38719;51.418;7.286;2022-10-30T01:52:22;99964.41;;;19.82;50.67
52855;BME280;38719;51.418;7.286;2022-10-30T01:55:00;99964.41;;;19.82;50.32
52855;BME280;38719;51.418;7.286;2022-10-30T01:57:35;99967.25;;;19.80;50.33
52855;BME280;38719;51.418;7.286;2022-10-30T02:00:07;99963.69;;;19.91;50.44
52855;BME280;38719;51.418;7.286;2022-10-30T02:02:39;99968.00;;;19.83;50.08
52855;BME280;38719;51.418;7.286;2022-10-30T02:05:08;99964.69;;;19.79;50.15
52855;BME280;38719;51.418;7.286;2022-10-30T02:07:37;99964.69;;;19.79;50.66
52855;BME280;38719;51.418;7.286;2022-10-30T02:10:05;99967.81;;;19.63;50.28
52855;BME280;38719;51.418;7.286;2022-10-30T02:12:33;99964.72;;;19.68;50.30
52855;BME280;38719;51.418;7.286;2022-10-30T02:15:00;99960.19;;;19.68;50.58
52855;BME280;38719;51.418;7.286;2022-10-30T02:17:28;99969.63;;;19.62;50.62
52855;BME280;38719;51.418;7.286;2022-10-30T02:19:56;99966.69;;;19.65;50.56
52855;BME280;38719;51.418;7.286;2022-10-30T02:22:25;99964.38;;;19.61;50.74
52855;BME280;38719;51.418;7.286;2022-10-30T02:24:53;99966.69;;;19.65;50.74
52855;BME280;38719;51.418;7.286;2022-10-30T02:27:20;99954.91;;;19.67;50.50
52855;BME280;38719;51.418;7.286;2022-10-30T02:29:48;99956.44;;;19.48;50.88
52855;BME280;38719;51.418;7.286;2022-10-30T02:32:15;99963.81;;;19.35;51.32
52855;BME280;38719;51.418;7.286;2022-10-30T02:34:43;99951.16;;;19.35;51.26
52855;BME280;38719;51.418;7.286;2022-10-30T02:37:10;99954.25;;;19.30;51.39
52855;BME280;38719;51.418;7.286;2022-10-30T02:39:39;99957.84;;;19.20;51.87
52855;BME280;38719;51.418;7.286;2022-10-30T02:42:06;99954.28;;;19.08;52.21
52855;BME280;38719;51.418;7.286;2022-10-30T02:44:34;99954.03;;;19.11;52.15
52855;BME280;38719;51.418;7.286;2022-10-30T02:47:01;99958.78;;;19.30;51.83
52855;BME280;38719;51.418;7.286;2022-10-30T02:49:29;99962.97;;;19.23;52.17
52855;BME280;38719;51.418;7.286;2022-10-30T02:51:56;99970.22;;;19.33;51.94
52855;BME280;38719;51.418;7.286;2022-10-30T02:54:24;99962.34;;;19.42;51.63
52855;BME280;38719;51.418;7.286;2022-10-30T02:56:53;99965.25;;;19.50;52.03
52855;BME280;38719;51.418;7.286;2022-10-30T02:59:20;99961.84;;;19.48;51.77
52855;BME280;38719;51.418;7.286;2022-10-30T03:01:48;99965.03;;;19.42;51.79
52855;BME280;38719;51.418;7.286;2022-10-30T03:04:15;99957.69;;;19.32;51.68
52855;BME280;38719;51.418;7.286;2022-10-30T03:06:43;99967.75;;;19.30;52.20
52855;BME280;38719;51.418;7.286;2022-10-30T03:09:10;99971.16;;;19.44;52.14
52855;BME280;38719;51.418;7.286;2022-10-30T03:11:38;99963.94;;;19.44;52.22
52855;BME280;38719;51.418;7.286;2022-10-30T03:14:07;99960.34;;;19.44;52.30
52855;BME280;38719;51.418;7.286;2022-10-30T03:16:35;99961.84;;;19.37;52.52
52855;BME280;38719;51.418;7.286;2022-10-30T03:19:03;99960.13;;;19.24;52.96
52855;BME280;38719;51.418;7.286;2022-10-30T03:21:30;99955.25;;;19.18;52.95
52855;BME280;38719;51.418;7.286;2022-10-30T03:23:58;99953.78;;;19.14;53.66
52855;BME280;38719;51.418;7.286;2022-10-30T03:26:27;99962.75;;;19.14;53.90
52855;BME280;38719;51.418;7.286;2022-10-30T03:28:54;99964.31;;;19.06;53.26
52855;BME280;38719;51.418;7.286;2022-10-30T03:31:23;99974.63;;;19.00;53.30
52855;BME280;38719;51.418;7.286;2022-10-30T03:33:50;99977.34;;;19.00;53.86
52855;BME280;38719;51.418;7.286;2022-10-30T03:36:18;99978.84;;;19.05;53.50
52855;BME280;38719;51.418;7.286;2022-10-30T03:38:46;99973.66;;;19.13;53.49
52855;BME280;38719;51.418;7.286;2022-10-30T03:41:15;99974.16;;;19.07;54.02
52855;BME280;38719;51.418;7.286;2022-10-30T03:43:43;99970.97;;;19.01;54.46
52855;BME280;38719;51.418;7.286;2022-10-30T03:46:11;99977.47;;;18.99;53.56
52855;BME280;38719;51.418;7.286;2022-10-30T03:48:40;99978.91;;;18.80;54.27
52855;BME280;38719;51.418;7.286;2022-10-30T03:51:07;99981.88;;;18.89;54.16
52855;BME280;38719;51.418;7.286;2022-10-30T03:53:35;99985.66;;;18.86;54.73
52855;BME280;38719;51.418;7.286;2022-10-30T03:56:04;99988.09;;;18.89;54.37
52855;BME280;38719;51.418;7.286;2022-10-30T03:58:34;99978.81;;;18.93;54.15
52855;BME280;38719;51.418;7.286;2022-10-30T04:01:03;99973.41;;;18.93;54.00
52855;BME280;38719;51.418;7.286;2022-10-30T04:03:31;99977.22;;;18.91;54.33
52855;BME280;38719;51.418;7.286;2022-10-30T04:06:00;99982.09;;;18.85;54.41
52855;BME280;38719;51.418;7.286;2022-10-30T04:08:27;99979.88;;;18.68;55.32
52855;BME280;38719;51.418;7.286;2022-10-30T04:10:55;99982.31;;;18.60;55.27
52855;BME280;38719;51.418;7.286;2022-10-30T04:13:22;99984.16;;;18.59;55.05
52855;BME280;38719;51.418;7.286;2022-10-30T04:15:50;99981.94;;;18.64;54.83
52855;BME280;38719;51.418;7.286;2022-10-30T04:18:22;99976.06;;;18.59;54.73
52855;BME280;38719;51.418;7.286;2022-10-30T04:20:50;99970.19;;;18.65;54.33
52855;BME280;38719;51.418;7.286;2022-10-30T04:23:19;99993.97;;;18.60;55.05
52855;BME280;38719;51.418;7.286;2022-10-30T04:25:47;99994.91;;;18.48;54.51
52855;BME280;38719;51.418;7.286;2022-10-30T04:28:15;99992.72;;;18.53;55.14
52855;BME280;38719;51.418;7.286;2022-10-30T04:30:43;99995.91;;;18.58;55.12
52855;BME280;38719;51.418;7.286;2022-10-30T04:33:12;99999.34;;;18.60;55.28
52855;BME280;38719;51.418;7.286;2022-10-30T04:35:40;99998.13;;;18.53;55.16
52855;BME280;38719;51.418;7.286;2022-10-30T04:38:13;99998.97;;;18.53;55.39
52855;BME280;38719;51.418;7.286;2022-10-30T04:40:42;100006.34;;;18.51;55.44
52855;BME280;38719;51.418;7.286;2022-10-30T04:43:11;100007.19;;;18.52;55.13
52855;BME280;38719;51.418;7.286;2022-10-30T04:45:40;100000.78;;;18.42;55.36
52855;BME280;38719;51.418;7.286;2022-10-30T04:48:10;100007.44;;;18.49;55.40
52855;BME280;38719;51.418;7.286;2022-10-30T04:50:38;99997.38;;;18.51;55.30
52855;BME280;38719;51.418;7.286;2022-10-30T04:53:06;99995.91;;;18.58;54.65
52855;BME280;38719;51.418;7.286;2022-10-30T04:55:35;99995.06;;;18.58;54.84
52855;BME280;38719;51.418;7.286;2022-10-30T04:58:04;99992.94;;;18.50;55.34
52855;BME280;38719;51.418;7.286;2022-10-30T05:00:34;99991.94;;;18.40;56.43
52855;BME280;38719;51.418;7.286;2022-10-30T05:03:02;99997.06;;;18.31;55.95
52855;BME280;38719;51.418;7.286;2022-10-30T05:05:30;99991.63;;;18.20;56.33
52855;BME280;38719;51.418;7.286;2022-10-30T05:07:58;99996.81;;;18.23;56.20
52855;BME280;38719;51.418;7.286;2022-10-30T05:10:26;99990.66;;;18.21;56.44
52855;BME280;38719;51.418;7.286;2022-10-30T05:12:53;99994.94;;;18.12;56.24
52855;BME280;38719;51.418;7.286;2022-10-30T05:15:22;99988.56;;;18.13;55.90
52855;BME280;38719;51.418;7.286;2022-10-30T05:17:51;99983.69;;;18.18;55.64
52855;BME280;38719;51.418;7.286;2022-10-30T05:20:19;99989.41;;;18.14;56.12
52855;BME280;38719;51.418;7.286;2022-10-30T05:22:53;99984.38;;;18.09;55.63
52855;BME280;38719;51.418;7.286;2022-10-30T05:25:21;99972.59;;;17.99;56.04
52855;BME280;38719;51.418;7.286;2022-10-30T05:27:48;99971.75;;;17.98;56.30
52855;BME280;38719;51.418;7.286;2022-10-30T05:30:16;99972.75;;;18.09;56.01
52855;BME280;38719;51.418;7.286;2022-10-30T05:32:45;99962.72;;;18.11;55.74
52855;BME280;38719;51.418;7.286;2022-10-30T05:35:12;99968.31;;;18.08;56.01
52855;BME280;38719;51.418;7.286;2022-10-30T05:37:40;99963.44;;;18.13;55.87
52855;BME280;38719;51.418;7.286;2022-10-30T05:40:08;99966.50;;;18.08;56.12
52855;BME280;38719;51.418;7.286;2022-10-30T05:42:36;99967.38;;;18.20;55.68
52855;BME280;38719;51.418;7.286;2022-10-30T05:45:05;99962.97;;;18.19;55.78
52855;BME280;38719;51.418;7.286;2022-10-30T05:47:32;99966.78;;;18.28;55.50
52855;BME280;38719;51.418;7.286;2022-10-30T05:50:01;99967.03;;;18.25;55.39
52855;BME280;38719;51.418;7.286;2022-10-30T05:52:29;99968.41;;;18.30;55.38
52855;BME280;38719;51.418;7.286;2022-10-30T05:54:56;99963.53;;;18.47;55.33
52855;BME280;38719;51.418;7.286;2022-10-30T05:57:26;99970.38;;;18.40;54.80
52855;BME280;38719;51.418;7.286;2022-10-30T05:59:54;99965.59;;;18.32;55.29
52855;BME280;38719;51.418;7.286;2022-10-30T06:02:22;99963.38;;;18.26;55.38
52855;BME280;38719;51.418;7.286;2022-10-30T06:04:49;99955.50;;;18.23;55.41
52855;BME280;38719;51.418;7.286;2022-10-30T06:07:18;99955.00;;;18.17;55.67
52855;BME280;38719;51.418;7.286;2022-10-30T06:09:45;99955.34;;;18.13;55.86
52855;BME280;38719;51.418;7.286;2022-10-30T06:12:13;99956.09;;;18.15;55.60
52855;BME280;38719;51.418;7.286;2022-10-30T06:14:40;99956.25;;;18.25;55.80
52855;BME280;38719;51.418;7.286;2022-10-30T06:17:08;99952.16;;;18.08;56.45
52855;BME280;38719;51.418;7.286;2022-10-30T06:19:35;99953.88;;;18.09;56.05
52855;BME280;38719;51.418;7.286;2022-10-30T06:22:03;99955.72;;;18.08;55.92
52855;BME280;38719;51.418;7.286;2022-10-30T06:24:32;99958.44;;;18.08;56.27
52855;BME280;38719;51.418;7.286;2022-10-30T06:26:59;99949.63;;;18.17;56.16
52855;BME280;38719;51.418;7.286;2022-10-30T06:29:27;99957.09;;;18.25;55.69
52855;BME280;38719;51.418;7.286;2022-10-30T06:31:54;99953.22;;;18.29;55.89
52855;BME280;38719;51.418;7.286;2022-10-30T06:34:26;99963.75;;;18.32;55.83
52855;BME280;38719;51.418;7.286;2022-10-30T06:36:53;99966.69;;;18.29;56.25
52855;BME280;38719;51.418;7.286;2022-10-30T06:39:21;99974.41;;;18.34;55.87
52855;BME280;38719;51.418;7.286;2022-10-30T06:41:51;99973.19;;;18.27;56.46
52855;BME280;38719;51.418;7.286;2022-10-30T06:44:18;99975.25;;;18.23;56.05
52855;BME280;38719;51.418;7.286;2022-10-30T06:46:46;99980.69;;;18.10;56.37
52855;BME280;38719;51.418;7.286;2022-10-30T06:49:13;99982.44;;;18.11;56.28
52855;BME280;38719;51.418;7.286;2022-10-30T06:51:41;99982.69;;;18.08;56.86
52855;BME280;38719;51.418;7.286;2022-10-30T06:54:08;99985.47;;;18.07;57.08
52855;BME280;38719;51.418;7.286;2022-10-30T06:56:36;99974.94;;;18.03;56.71
52855;BME280;38719;51.418;7.286;2022-10-30T06:59:05;99977.28;;;18.08;56.90
52855;BME280;38719;51.418;7.286;2022-10-30T07:01:32;99980.31;;;18.03;57.65
52855;BME280;38719;51.418;7.286;2022-10-30T07:04:00;99978.94;;;17.98;57.48
52855;BME280;38719;51.418;7.286;2022-10-30T07:06:27;99986.94;;;17.99;57.04
52855;BME280;38719;51.418;7.286;2022-10-30T07:08:55;99994.00;;;18.00;56.74
52855;BME280;38719;51.418;7.286;2022-10-30T07:11:23;99995.97;;;17.98;57.14
52855;BME280;38719;51.418;7.286;2022-10-30T07:13:50;99987.28;;;17.95;56.99
52855;BME280;38719;51.418;7.286;2022-10-30T07:16:19;100001.88;;;18.03;57.21
52855;BME280;38719;51.418;7.286;2022-10-30T07:18:46;99995.09;;;17.98;57.12
52855;BME280;38719;51.418;7.286;2022-10-30T07:21:14;100000.50;;;17.98;56.77
52855;BME280;38719;51.418;7.286;2022-10-30T07:23:41;99997.13;;;18.07;57.06
52855;BME280;38719;51.418;7.286;2022-10-30T07:26:09;99995.53;;;18.04;57.16
52855;BME280;38719;51.418;7.286;2022-10-30T07:28:36;100001.88;;;18.03;56.87
52855;BME280;38719;51.418;7.286;2022-10-30T07:31:04;100003.09;;;17.99;57.17
52855;BME280;38719;51.418;7.286;2022-10-30T07:33:33;100006.44;;;17.90;57.12
52855;BME280;38719;51.418;7.286;2022-10-30T07:36:01;99996.50;;;18.03;57.35
52855;BME280;38719;51.418;7.286;2022-10-30T07:38:29;100000.78;;;18.06;56.66
52855;BME280;38719;51.418;7.286;2022-10-30T07:40:56;100000.59;;;18.20;56.54
52855;BME280;38719;51.418;7.286;2022-10-30T07:43:24;100001.72;;;18.29;56.72
52855;BME280;38719;51.418;7.286;2022-10-30T07:45:51;99995.00;;;18.35;56.76
52855;BME280;38719;51.418;7.286;2022-10-30T07:48:19;100003.56;;;18.40;56.48
52855;BME280;38719;51.418;7.286;2022-10-30T07:50:48;100001.31;;;18.58;55.88
52855;BME280;38719;51.418;7.286;2022-10-30T07:53:15;99996.88;;;18.57;56.71
52855;BME280;38719;51.418;7.286;2022-10-30T07:55:43;100004.50;;;18.63;56.16
52855;BME280;38719;51.418;7.286;2022-10-30T07:58:10;99999.72;;;18.67;55.79
52855;BME280;38719;51.418;7.286;2022-10-30T08:00:38;100002.69;;;18.75;56.11
52855;BME280;38719;51.418;7.286;2022-10-30T08:03:05;100001.94;;;18.84;55.96
52855;BME280;38719;51.418;7.286;2022-10-30T08:05:33;100000.34;;;18.82;57.67
52855;BME280;38719;51.418;7.286;2022-10-30T08:08:02;99996.31;;;18.88;57.17
52855;BME280;38719;51.418;7.286;2022-10-30T08:10:30;99991.31;;;18.94;56.18
52855;BME280;38719;51.418;7.286;2022-10-30T08:12:57;100001.88;;;18.97;55.99
52855;BME280;38719;51.418;7.286;2022-10-30T08:15:25;100001.63;;;19.00;55.85
52855;BME280;38719;51.418;7.286;2022-10-30T08:17:52;99994.28;;;19.03;55.60
52855;BME280;38719;51.418;7.286;2022-10-30T08:20:22;99997.72;;;19.05;55.83
52855;BME280;38719;51.418;7.286;2022-10-30T08:22:51;99992.56;;;19.01;55.39
52855;BME280;38719;51.418;7.286;2022-10-30T08:25:22;99985.19;;;19.04;55.94
52855;BME280;38719;51.418;7.286;2022-10-30T08:27:52;99996.75;;;19.17;55.87
52855;BME280;38719;51.418;7.286;2022-10-30T08:30:21;99995.84;;;19.16;56.01
52855;BME280;38719;51.418;7.286;2022-10-30T08:32:49;99995.63;;;19.20;55.56
52855;BME280;38719;51.418;7.286;2022-10-30T08:35:16;99985.94;;;19.17;55.63
52855;BME280;38719;51.418;7.286;2022-10-30T08:37:45;100000.41;;;19.27;55.60
52855;BME280;38719;51.418;7.286;2022-10-30T08:40:13;99984.69;;;19.32;55.86
52855;BME280;38719;51.418;7.286;2022-10-30T08:42:49;99987.34;;;19.44;55.59
52855;BME280;38719;51.418;7.286;2022-10-30T08:45:17;99982.34;;;19.39;55.59
52855;BME280;38719;51.418;7.286;2022-10-30T08:47:45;99972.28;;;19.41;55.68
52855;BME280;38719;51.418;7.286;2022-10-30T08:50:12;99976.19;;;19.48;55.42
52855;BME280;38719;51.418;7.286;2022-10-30T08:52:40;99980.09;;;19.56;55.23
52855;BME280;38719;51.418;7.286;2022-10-30T08:55:08;99976.28;;;19.58;55.03
52855;BME280;38719;51.418;7.286;2022-10-30T08:57:35;99979.38;;;19.54;55.15
52855;BME280;38719;51.418;7.286;2022-10-30T09:00:08;99973.81;;;19.55;54.83
52855;BME280;38719;51.418;7.286;2022-10-30T09:02:36;99967.06;;;19.61;54.69
52855;BME280;38719;51.418;7.286;2022-10-30T09:05:05;99963.91;;;19.56;55.13
52855;BME280;38719;51.418;7.286;2022-10-30T09:07:32;99966.94;;;19.62;55.02
52855;BME280;38719;51.418;7.286;2022-10-30T09:10:00;99965.81;;;19.76;54.72
52855;BME280;38719;51.418;7.286;2022-10-30T09:12:28;99968.09;;;19.81;54.98
52855;BME280;38719;51.418;7.286;2022-10-30T09:14:55;99973.03;;;19.87;54.78
52855;BME280;38719;51.418;7.286;2022-10-30T09:17:24;99973.53;;;19.92;54.60
52855;BME280;38719;51.418;7.286;2022-10-30T09:19:53;99973.84;;;19.99;54.90
52855;BME280;38719;51.418;7.286;2022-10-30T09:22:20;99970.03;;;20.02;55.08
52855;BME280;38719;51.418;7.286;2022-10-30T09:24:48;99971.97;;;20.11;54.66
52855;BME280;38719;51.418;7.286;2022-10-30T09:27:16;99971.56;;;20.16;54.24
52855;BME280;38719;51.418;7.286;2022-10-30T09:29:43;99963.59;;;20.14;54.23
52855;BME280;38719;51.418;7.286;2022-10-30T09:32:11;99964.13;;;20.29;54.07
52855;BME280;38719;51.418;7.286;2022-10-30T09:34:40;99965.25;;;20.26;54.14
52855;BME280;38719;51.418;7.286;2022-10-30T09:37:07;99963.44;;;20.37;54.29
52855;BME280;38719;51.418;7.286;2022-10-30T09:39:35;99964.38;;;20.47;53.77
52855;BME280;38719;51.418;7.286;2022-10-30T09:42:16;99958.25;;;20.45;53.61
52855;BME280;38719;51.418;7.286;2022-10-30T09:44:55;99956.38;;;20.24;53.99
52855;BME280;38719;51.418;7.286;2022-10-30T09:47:56;99955.00;;;20.51;54.01
52855;BME280;38719;51.418;7.286;2022-10-30T09:50:30;99951.47;;;20.72;55.17
52855;BME280;38719;51.418;7.286;2022-10-30T09:53:11;99949.78;;;20.81;54.02
52855;BME280;38719;51.418;7.286;2022-10-30T09:55:46;99947.94;;;20.81;53.19
52855;BME280;38719;51.418;7.286;2022-10-30T09:58:22;99938.47;;;20.97;53.20
52855;BME280;38719;51.418;7.286;2022-10-30T10:01:03;99942.59;;;21.01;52.57
52855;BME280;38719;51.418;7.286;2022-10-30T10:03:48;99933.81;;;21.18;52.34
52855;BME280;38719;51.418;7.286;2022-10-30T10:06:24;99935.09;;;21.14;52.88
52855;BME280;38719;51.418;7.286;2022-10-30T10:08:55;99935.69;;;21.18;52.94
52855;BME280;38719;51.418;7.286;2022-10-30T10:11:28;99931.97;;;21.19;53.08
52855;BME280;38719;51.418;7.286;2022-10-30T10:14:00;99937.25;;;21.20;53.79
52855;BME280;38719;51.418;7.286;2022-10-30T10:16:36;99935.97;;;21.24;53.27
52855;BME280;38719;51.418;7.286;2022-10-30T10:19:09;99949.41;;;20.95;52.27
52855;BME280;38719;51.418;7.286;2022-10-30T10:21:45;99941.28;;;20.95;52.86
52855;BME280;38719;51.418;7.286;2022-10-30T10:24:17;99935.81;;;21.16;52.42
52855;BME280;38719;51.418;7.286;2022-10-30T10:26:47;99938.00;;;21.42;52.23
52855;BME280;38719;51.418;7.286;2022-10-30T10:29:31;99936.66;;;21.57;51.57
52855;BME280;38719;51.418;7.286;2022-10-30T10:35:08;99935.72;;;21.37;51.79
52855;BME280;38719;51.418;7.286;2022-10-30T10:37:48;99927.34;;;21.50;51.49
52855;BME280;38719;51.418;7.286;2022-10-30T10:40:26;99927.53;;;21.58;50.90
52855;BME280;38719;51.418;7.286;2022-10-30T10:43:10;99926.22;;;21.63;51.39
52855;BME280;38719;51.418;7.286;2022-10-30T10:45:47;99929.94;;;21.81;51.84
52855;BME280;38719;51.418;7.286;2022-10-30T10:48:26;99926.09;;;21.94;51.54
52855;BME280;38719;51.418;7.286;2022-10-30T10:51:01;99926.66;;;21.97;51.28
52855;BME280;38719;51.418;7.286;2022-10-30T10:53:41;99914.41;;;21.83;50.20
52855;BME280;38719;51.418;7.286;2022-10-30T10:56:11;99924.09;;;21.76;49.89
52855;BME280;38719;51.418;7.286;2022-10-30T10:58:47;99922.25;;;21.96;49.94
52855;BME280;38719;51.418;7.286;2022-10-30T11:01:19;99923.22;;;22.05;50.03
52855;BME280;38719;51.418;7.286;2022-10-30T11:03:54;99914.69;;;22.00;50.05
52855;BME280;38719;51.418;7.286;2022-10-30T11:06:26;99913.09;;;22.07;49.63
52855;BME280;38719;51.418;7.286;2022-10-30T11:09:04;99915.25;;;22.13;49.93
52855;BME280;38719;51.418;7.286;2022-10-30T11:11:38;99912.38;;;22.15;49.78
52855;BME280;38719;51.418;7.286;2022-10-30T11:14:12;99915.38;;;22.21;49.60
52855;BME280;38719;51.418;7.286;2022-10-30T11:16:55;99911.81;;;22.11;49.09
52855;BME280;38719;51.418;7.286;2022-10-30T11:19:25;99922.03;;;22.37;48.36
52855;BME280;38719;51.418;7.286;2022-10-30T11:21:55;99903.94;;;22.28;49.15
52855;BME280;38719;51.418;7.286;2022-10-30T11:24:29;99907.66;;;22.27;48.50
52855;BME280;38719;51.418;7.286;2022-10-30T11:27:14;99902.94;;;22.38;48.03
52855;BME280;38719;51.418;7.286;2022-10-30T11:29:51;99909.63;;;22.34;48.45
52855;BME280;38719;51.418;7.286;2022-10-30T11:32:20;99899.38;;;22.38;48.04
52855;BME280;38719;51.418;7.286;2022-10-30T11:35:00;99901.78;;;22.41;48.56
52855;BME280;38719;51.418;7.286;2022-10-30T11:37:29;99902.50;;;22.43;48.77
52855;BME280;38719;51.418;7.286;2022-10-30T11:40:04;99894.66;;;22.40;47.91
52855;BME280;38719;51.418;7.286;2022-10-30T11:42:33;99890.94;;;22.41;47.57
52855;BME280;38719;51.418;7.286;2022-10-30T11:45:02;99894.84;;;22.19;48.38
52855;BME280;38719;51.418;7.286;2022-10-30T11:47:32;99899.22;;;22.30;49.10
52855;BME280;38719;51.418;7.286;2022-10-30T11:50:06;99894.19;;;22.45;48.46
52855;BME280;38719;51.418;7.286;2022-10-30T11:52:41;99900.34;;;22.37;48.94
52855;BME280;38719;51.418;7.286;2022-10-30T11:55:15;99889.25;;;22.40;48.02
52855;BME280;38719;51.418;7.286;2022-10-30T11:57:46;99893.94;;;22.38;48.25
52855;BME280;38719;51.418;7.286;2022-10-30T12:00:17;99889.63;;;22.55;47.55
52855;BME280;38719;51.418;7.286;2022-10-30T12:02:46;99879.91;;;22.52;47.95
52855;BME280;38719;51.418;7.286;2022-10-30T12:05:35;99882.03;;;22.59;47.80
52855;BME280;38719;51.418;7.286;2022-10-30T12:08:18;99870.47;;;22.57;47.28
52855;BME280;38719;51.418;7.286;2022-10-30T12:10:57;99874.09;;;22.47;46.94
52855;BME280;38719;51.418;7.286;2022-10-30T12:13:31;99877.63;;;22.58;47.27
52855;BME280;38719;51.418;7.286;2022-10-30T12:16:18;99883.03;;;22.58;47.20
52855;BME280;38719;51.418;7.286;2022-10-30T12:18:54;99876.09;;;22.73;46.83
52855;BME280;38719;51.418;7.286;2022-10-30T12:21:24;99874.31;;;22.64;47.58
52855;BME280;38719;51.418;7.286;2022-10-30T12:23:55;99875.97;;;22.75;47.02
52855;BME280;38719;51.418;7.286;2022-10-30T12:26:24;99881.41;;;22.75;47.53
52855;BME280;38719;51.418;7.286;2022-10-30T12:28:57;99877.63;;;22.85;47.38
52855;BME280;38719;51.418;7.286;2022-10-30T12:31:31;99870.19;;;22.88;47.11
52855;BME280;38719;51.418;7.286;2022-10-30T12:34:16;99875.25;;;22.73;46.93
52855;BME280;38719;51.418;7.286;2022-10-30T12:36:55;99871.44;;;22.65;47.00
52855;BME280;38719;51.418;7.286;2022-10-30T12:39:29;99882.56;;;22.72;47.00
52855;BME280;38719;51.418;7.286;2022-10-30T12:42:06;99875.81;;;22.76;47.45
52855;BME280;38719;51.418;7.286;2022-10-30T12:44:40;99875.50;;;22.79;47.07
52855;BME280;38719;51.418;7.286;2022-10-30T13:01:35;99873.94;;;22.77;47.86
52855;BME280;38719;51.418;7.286;2022-10-30T13:04:11;99868.06;;;22.53;48.00
52855;BME280;38719;51.418;7.286;2022-10-30T13:06:43;99865.16;;;22.65;47.66
52855;BME280;38719;51.418;7.286;2022-10-30T13:09:17;99867.03;;;22.54;46.73
52855;BME280;38719;51.418;7.286;2022-10-30T13:11:50;99866.03;;;22.56;46.46
52855;BME280;38719;51.418;7.286;2022-10-30T13:14:26;99869.31;;;22.59;47.43
52855;BME280;38719;51.418;7.286;2022-10-30T13:16:57;99870.19;;;22.60;46.79
52855;BME280;38719;51.418;7.286;2022-10-30T13:19:25;99875.53;;;22.69;47.46
52855;BME280;38719;51.418;7.286;2022-10-30T13:21:59;99871.44;;;22.65;46.60
52855;BME280;38719;51.418;7.286;2022-10-30T13:24:41;99875.03;;;22.66;47.29
52855;BME280;38719;51.418;7.286;2022-10-30T13:27:15;99869.03;;;22.62;47.75
52855;BME280;38719;51.418;7.286;2022-10-30T13:29:48;99869.47;;;22.58;47.64
52855;BME280;38719;51.418;7.286;2022-10-30T13:32:40;99865.84;;;22.67;46.89
52855;BME280;38719;51.418;7.286;2022-10-30T13:35:20;99860.53;;;22.75;46.80